createdAt,value
2022-08-17T00:02:25.226Z,99815.69
2022-08-17T00:05:34.928Z,99818.34
2022-08-17T00:08:40.179Z,99814.53
2022-08-17T00:11:43.681Z,99815.28
2022-08-17T00:15:06.328Z,99816.97
2022-08-17T00:19:01.551Z,99816.97
2022-08-17T00:22:29.615Z,99821.50
2022-08-17T00:25:00.198Z,99820.31
2022-08-17T00:28:03.789Z,99820.31
2022-08-17T00:31:08.372Z,99815.97
2022-08-17T00:34:10.646Z,99817.78
2022-08-17T00:37:13.130Z,99817.59
2022-08-17T00:40:15.604Z,99817.84
2022-08-17T00:43:27.450Z,99814.62
2022-08-17T00:46:31.959Z,99816.53
2022-08-17T00:49:34.491Z,99808.75
2022-08-17T00:52:39.200Z,99808.59
2022-08-17T00:55:41.854Z,99810.53
2022-08-17T00:58:44.672Z,99824.72
2022-08-17T01:01:49.367Z,99829.50
2022-08-17T01:04:52.897Z,99825.28
2022-08-17T01:07:55.739Z,99831.81
2022-08-17T01:11:02.256Z,99823.41
2022-08-17T01:14:04.964Z,99831.72
2022-08-17T01:17:08.107Z,99826.69
2022-08-17T01:20:11.046Z,99834.97
2022-08-17T01:23:20.813Z,99834.72
2022-08-17T01:26:23.825Z,99840.25
2022-08-17T01:29:26.671Z,99837.50
2022-08-17T01:32:30.433Z,99844.12
2022-08-17T01:35:32.981Z,99843.50
2022-08-17T01:38:36.187Z,99846.53
2022-08-17T01:41:40.955Z,99843.53
2022-08-17T01:44:43.612Z,99843.06
2022-08-17T01:47:46.099Z,99840.78
2022-08-17T01:50:49.676Z,99839.22
2022-08-17T01:53:54.393Z,99839.47
2022-08-17T01:56:57.109Z,99841.78
2022-08-17T01:59:59.904Z,99845.47
2022-08-17T02:03:11.968Z,99844.16
2022-08-17T02:06:27.074Z,99845.25
2022-08-17T02:09:30.370Z,99841.16
2022-08-17T02:12:38.381Z,99842.13
2022-08-17T02:15:42.282Z,99842.59
2022-08-17T02:18:46.413Z,99840.94
2022-08-17T02:21:50.170Z,99839.94
2022-08-17T02:25:00.888Z,99840.94
2022-08-17T02:28:04.630Z,99833.13
2022-08-17T02:31:09.372Z,99831.44
2022-08-17T02:34:11.846Z,99836.97
2022-08-17T02:37:17.316Z,99831.69
2022-08-17T02:40:36.185Z,99829.19
2022-08-17T02:43:39.229Z,99834.59
2022-08-17T02:46:41.501Z,99834.44
2022-08-17T02:49:54.461Z,99834.69
2022-08-17T02:53:01.670Z,99829.62
2022-08-17T02:56:05.274Z,99838.88
2022-08-17T02:59:07.556Z,99840.69
2022-08-17T03:02:11.267Z,99841.16
2022-08-17T03:05:15.020Z,99839.59
2022-08-17T03:08:18.134Z,99833.72
2022-08-17T03:11:20.498Z,99838.50
2022-08-17T03:14:26.257Z,99838.63
2022-08-17T03:17:28.845Z,99843.19
2022-08-17T03:20:33.485Z,99843.41
2022-08-17T03:23:41.152Z,99836.69
2022-08-17T03:26:43.893Z,99849.88
2022-08-17T03:29:46.313Z,99862.44
2022-08-17T03:32:50.401Z,99858.84
2022-08-17T03:35:52.816Z,99864.84
2022-08-17T03:38:55.406Z,99862.22
2022-08-17T03:42:07.759Z,99866.75
2022-08-17T03:45:15.108Z,99872.97
2022-08-17T03:48:36.528Z,99869.63
2022-08-17T03:51:57.784Z,99877.81
2022-08-17T03:55:18.597Z,99875.53
2022-08-17T03:58:21.247Z,99876.69
2022-08-17T04:01:23.667Z,99882.81
2022-08-17T04:04:27.584Z,99884.75
2022-08-17T04:07:30.835Z,99888.09
2022-08-17T04:10:41.274Z,99882.81
2022-08-17T04:13:47.604Z,99885.22
2022-08-17T04:16:50.173Z,99891.00
2022-08-17T04:19:53.145Z,99882.00
2022-08-17T04:23:03.543Z,99876.88
2022-08-17T04:26:06.130Z,99889.34
2022-08-17T04:29:08.639Z,99890.78
2022-08-17T04:32:10.899Z,99893.69
2022-08-17T04:35:18.059Z,99897.53
2022-08-17T04:38:22.168Z,99899.44
2022-08-17T04:41:43.661Z,99902.59
2022-08-17T04:44:45.933Z,99907.16
2022-08-17T04:47:50.432Z,99905.69
2022-08-17T04:50:53.004Z,99903.16
2022-08-17T04:54:00.147Z,99908.56
2022-08-17T04:57:02.507Z,99907.59
2022-08-17T05:00:06.082Z,99918.84
2022-08-17T05:03:09.344Z,99916.19
2022-08-17T05:06:11.959Z,99913.97
2022-08-17T05:09:14.285Z,99915.44
2022-08-17T05:12:16.991Z,99925.84
2022-08-17T05:15:19.344Z,99922.34
2022-08-17T05:18:22.532Z,99926.00
2022-08-17T05:21:27.335Z,99928.09
2022-08-17T05:24:38.303Z,99929.84
2022-08-17T05:27:41.545Z,99928.09
2022-08-17T05:30:46.196Z,99930.81
2022-08-17T05:33:51.876Z,99926.13
2022-08-17T05:36:54.418Z,99914.69
2022-08-17T05:39:56.801Z,99918.25
2022-08-17T05:43:17.665Z,99915.50
2022-08-17T05:46:20.019Z,99926.41
2022-08-17T05:49:27.114Z,99915.91
2022-08-17T05:52:32.417Z,99925.28
2022-08-17T05:55:41.943Z,99931.75
2022-08-17T05:58:56.356Z,99930.25
2022-08-17T06:02:18.958Z,99933.06
2022-08-17T06:05:21.556Z,99936.12
2022-08-17T06:08:32.948Z,99938.09
2022-08-17T06:11:41.729Z,99938.72
2022-08-17T06:14:52.389Z,99934.00
2022-08-17T06:17:57.463Z,99939.50
2022-08-17T06:21:02.878Z,99936.91
2022-08-17T06:24:08.256Z,99947.81
2022-08-17T06:27:13.411Z,99949.94
2022-08-17T06:30:20.300Z,99951.03
2022-08-17T06:33:26.087Z,99952.81
2022-08-17T06:36:29.366Z,99945.66
2022-08-17T06:39:31.709Z,99948.16
2022-08-17T06:43:06.180Z,99950.06
2022-08-17T06:46:12.260Z,99943.53
2022-08-17T06:49:21.969Z,99944.88
2022-08-17T06:52:45.901Z,99945.97
2022-08-17T06:56:06.786Z,99949.38
2022-08-17T06:59:13.980Z,99951.12
2022-08-17T07:02:20.107Z,99943.88
2022-08-17T07:05:36.562Z,99947.47
2022-08-17T07:08:49.854Z,99949.03
2022-08-17T07:11:58.575Z,99947.16
2022-08-17T07:15:08.049Z,99946.97
2022-08-17T07:18:10.875Z,99958.78
2022-08-17T07:21:38.579Z,99958.62
2022-08-17T07:24:47.285Z,99958.13
2022-08-17T07:27:55.935Z,99945.78
2022-08-17T07:30:59.944Z,99950.41
2022-08-17T07:34:07.916Z,99941.22
2022-08-17T07:37:10.600Z,99941.38
2022-08-17T07:40:22.768Z,99937.44
2022-08-17T07:43:26.677Z,99944.12
2022-08-17T07:46:52.931Z,99948.31
2022-08-17T07:49:56.164Z,99938.97
2022-08-17T07:53:14.921Z,99941.91
2022-08-17T07:56:34.707Z,99940.00
2022-08-17T07:59:41.252Z,99934.00
2022-08-17T08:02:47.585Z,99925.06
2022-08-17T08:05:58.439Z,99924.31
2022-08-17T08:09:01.830Z,99929.16
2022-08-17T08:12:24.740Z,99928.59
2022-08-17T08:15:44.984Z,99922.69
2022-08-17T08:18:55.517Z,99919.75
2022-08-17T08:22:10.227Z,99915.75
2022-08-17T08:25:22.481Z,99919.75
2022-08-17T08:28:37.233Z,99913.94
2022-08-17T08:31:56.263Z,99918.28
2022-08-17T08:35:03.598Z,99932.84
2022-08-17T08:38:33.589Z,99922.94
2022-08-17T08:42:14.737Z,99929.31
2022-08-17T08:45:38.225Z,99926.28
2022-08-17T08:48:56.476Z,99916.97
2022-08-17T08:52:02.489Z,99916.75
2022-08-17T08:55:08.776Z,99914.91
2022-08-17T08:58:30.695Z,99911.03
2022-08-17T09:01:46.059Z,99908.16
2022-08-17T09:05:15.505Z,99898.56
2022-08-17T09:08:24.557Z,99890.41
2022-08-17T09:12:01.901Z,99892.88
2022-08-17T09:15:13.141Z,99896.38
2022-08-17T09:18:59.087Z,99901.41
2022-08-17T09:21:48.168Z,99892.03
2022-08-17T09:24:57.154Z,99898.16
2022-08-17T09:28:03.739Z,99903.72
2022-08-17T09:31:08.532Z,99892.59
2022-08-17T09:34:16.151Z,99891.34
2022-08-17T09:37:21.713Z,99892.22
2022-08-17T09:40:30.907Z,99891.78
2022-08-17T09:43:33.475Z,99887.56
2022-08-17T09:47:08.569Z,99884.69
2022-08-17T09:51:01.588Z,99883.88
2022-08-17T09:53:52.362Z,99876.91
2022-08-17T09:57:28.042Z,99885.69
2022-08-17T10:00:27.632Z,99881.94
2022-08-17T10:03:51.702Z,99871.13
2022-08-17T10:07:12.659Z,99874.88
2022-08-17T10:10:21.043Z,99885.06
2022-08-17T10:13:53.499Z,99887.41
2022-08-17T10:17:00.644Z,99891.53
2022-08-17T10:20:12.472Z,99883.19
2022-08-17T10:23:40.933Z,99885.41
2022-08-17T10:26:56.142Z,99876.31
2022-08-17T10:30:04.497Z,99882.41
2022-08-17T10:33:15.402Z,99872.81
2022-08-17T10:36:22.592Z,99866.66
2022-08-17T10:39:51.972Z,99872.78
2022-08-17T10:43:17.294Z,99872.22
2022-08-17T10:46:30.051Z,99875.22
2022-08-17T10:49:34.607Z,99869.22
2022-08-17T10:52:42.840Z,99867.97
2022-08-17T10:56:05.672Z,99870.50
2022-08-17T10:59:08.505Z,99878.75
2022-08-17T11:02:14.210Z,99870.16
2022-08-17T11:05:20.647Z,99864.69
2022-08-17T11:08:57.521Z,99866.66
2022-08-17T11:12:19.663Z,99867.84
2022-08-17T11:15:38.775Z,99861.69
2022-08-17T11:18:50.845Z,99867.81
2022-08-17T11:22:33.353Z,99866.19
2022-08-17T11:25:43.926Z,99853.31
2022-08-17T11:28:50.386Z,99854.59
2022-08-17T11:32:01.546Z,99846.81
2022-08-17T11:35:13.618Z,99844.62
2022-08-17T11:38:28.479Z,99846.19
2022-08-17T11:41:49.915Z,99840.31
2022-08-17T11:44:57.940Z,99831.88
2022-08-17T11:48:28.317Z,99840.91
2022-08-17T11:51:49.871Z,99834.63
2022-08-17T11:54:52.455Z,99836.88
2022-08-17T11:57:59.776Z,99832.87
2022-08-17T12:01:03.857Z,99827.50
2022-08-17T12:04:24.468Z,99835.53
2022-08-17T12:07:27.031Z,99839.03
2022-08-17T12:10:35.481Z,99833.00
2022-08-17T12:13:49.747Z,99826.28
2022-08-17T12:17:05.300Z,99820.50
2022-08-17T12:20:18.280Z,99811.31
2022-08-17T12:23:41.719Z,99812.63
2022-08-17T12:26:51.772Z,99806.34
2022-08-17T12:29:55.485Z,99808.78
2022-08-17T12:32:58.210Z,99806.28
2022-08-17T12:36:03.304Z,99795.09
2022-08-17T12:39:13.310Z,99799.59
2022-08-17T12:42:25.681Z,99801.84
2022-08-17T12:45:29.756Z,99797.13
2022-08-17T12:48:34.327Z,99802.47
2022-08-17T12:51:36.677Z,99794.78
2022-08-17T12:54:43.746Z,99788.78
2022-08-17T12:57:47.571Z,99788.88
2022-08-17T13:01:02.552Z,99788.00
2022-08-17T13:04:05.986Z,99788.72
2022-08-17T13:07:08.613Z,99788.78
2022-08-17T13:10:17.341Z,99794.53
2022-08-17T13:13:22.751Z,99793.47
2022-08-17T13:16:27.188Z,99784.72
2022-08-17T13:19:40.486Z,99785.25
2022-08-17T13:22:52.019Z,99782.38
2022-08-17T13:26:02.542Z,99784.75
2022-08-17T13:29:07.668Z,99787.16
2022-08-17T13:32:13.566Z,99776.97
2022-08-17T13:35:29.529Z,99788.97
2022-08-17T13:38:35.946Z,99776.84
2022-08-17T13:41:41.013Z,99772.19
2022-08-17T13:44:43.696Z,99764.63
2022-08-17T13:47:46.153Z,99766.66
2022-08-17T13:50:59.583Z,99764.37
2022-08-17T13:54:04.975Z,99767.41
2022-08-17T13:57:18.086Z,99762.69
2022-08-17T14:00:30.238Z,99770.81
2022-08-17T14:03:32.852Z,99768.97
2022-08-17T14:06:54.418Z,99772.47
2022-08-17T14:10:12.315Z,99765.13
2022-08-17T14:13:15.413Z,99761.31
2022-08-17T14:16:18.174Z,99758.88
2022-08-17T14:19:21.996Z,99767.78
2022-08-17T14:22:27.573Z,99761.91
2022-08-17T14:25:32.383Z,99756.34
2022-08-17T14:28:36.513Z,99766.16
2022-08-17T14:31:39.049Z,99763.09
2022-08-17T14:34:42.207Z,99757.91
2022-08-17T14:37:45.772Z,99761.03
2022-08-17T14:40:48.756Z,99744.50
2022-08-17T14:43:53.451Z,99753.62
2022-08-17T14:46:56.079Z,99762.84
2022-08-17T14:49:59.658Z,99764.78
2022-08-17T14:53:03.916Z,99764.41
2022-08-17T14:56:06.409Z,99764.78
2022-08-17T14:59:09.430Z,99756.06
2022-08-17T15:02:12.070Z,99759.00
2022-08-17T15:05:16.152Z,99758.91
2022-08-17T15:08:19.562Z,99755.84
2022-08-17T15:11:22.341Z,99759.47
2022-08-17T15:14:24.692Z,99756.34
2022-08-17T15:17:44.518Z,99761.38
2022-08-17T15:20:49.333Z,99756.03
2022-08-17T15:23:51.988Z,99755.97
2022-08-17T15:26:54.370Z,99761.28
2022-08-17T15:29:57.510Z,99763.16
2022-08-17T15:33:00.766Z,99761.28
2022-08-17T15:36:06.465Z,99765.84
2022-08-17T15:39:08.999Z,99754.69
2022-08-17T15:42:11.742Z,99758.84
2022-08-17T15:45:16.537Z,99751.13
2022-08-17T15:48:20.432Z,99757.59
2022-08-17T15:51:24.622Z,99757.25
2022-08-17T15:54:34.543Z,99758.53
2022-08-17T15:57:38.547Z,99763.94
2022-08-17T16:00:56.807Z,99757.72
2022-08-17T16:04:26.754Z,99758.19
2022-08-17T16:07:32.326Z,99753.66
2022-08-17T16:10:36.098Z,99757.78
2022-08-17T16:13:39.759Z,99759.44
2022-08-17T16:16:42.415Z,99755.72
2022-08-17T16:19:44.888Z,99751.00
2022-08-17T16:22:48.737Z,99751.44
2022-08-17T16:25:53.733Z,99756.00
2022-08-17T16:28:57.758Z,99748.75
2022-08-17T16:32:06.916Z,99753.28
2022-08-17T16:35:11.170Z,99753.50
2022-08-17T16:38:13.614Z,99748.94
2022-08-17T16:41:36.252Z,99751.63
2022-08-17T16:44:38.632Z,99751.63
2022-08-17T16:47:42.031Z,99745.41
2022-08-17T16:51:03.470Z,99755.72
2022-08-17T16:54:07.503Z,99748.41
2022-08-17T16:57:10.506Z,99758.16
2022-08-17T17:00:15.095Z,99753.97
2022-08-17T17:03:20.012Z,99757.81
2022-08-17T17:06:44.964Z,99759.38
2022-08-17T17:09:52.643Z,99760.72
2022-08-17T17:13:01.985Z,99757.63
2022-08-17T17:16:21.739Z,99762.09
2022-08-17T17:19:43.391Z,99767.00
2022-08-17T17:22:50.732Z,99767.06
2022-08-17T17:26:08.691Z,99769.28
2022-08-17T17:29:29.653Z,99772.87
2022-08-17T17:32:50.167Z,99773.53
2022-08-17T17:36:00.802Z,99778.78
2022-08-17T17:39:06.567Z,99778.44
2022-08-17T17:42:10.644Z,99786.59
2022-08-17T17:45:25.886Z,99797.16
2022-08-17T17:48:28.827Z,99786.81
2022-08-17T17:52:09.112Z,99788.66
2022-08-17T17:55:09.793Z,99792.16
2022-08-17T17:58:13.348Z,99793.84
2022-08-17T18:01:20.073Z,99801.81
2022-08-17T18:04:30.116Z,99799.47
2022-08-17T18:07:42.483Z,99794.38
2022-08-17T18:11:00.615Z,99801.44
2022-08-17T18:14:26.859Z,99801.56
2022-08-17T18:17:31.155Z,99799.34
2022-08-17T18:20:43.268Z,99803.59
2022-08-17T18:24:00.066Z,99811.47
2022-08-17T18:27:08.684Z,99814.88
2022-08-17T18:30:14.665Z,99815.75
2022-08-17T18:33:26.384Z,99815.28
2022-08-17T18:36:32.618Z,99825.31
2022-08-17T18:39:37.093Z,99834.63
2022-08-17T18:42:40.006Z,99834.31
2022-08-17T18:45:42.434Z,99837.19
2022-08-17T18:48:59.060Z,99830.84
2022-08-17T18:52:10.961Z,99839.81
2022-08-17T18:55:15.351Z,99839.00
2022-08-17T18:58:20.191Z,99841.50
2022-08-17T19:01:23.130Z,99846.66
2022-08-17T19:05:00.953Z,99842.25
2022-08-17T19:08:21.802Z,99843.25
2022-08-17T19:11:27.174Z,99837.44
2022-08-17T19:14:30.182Z,99840.41
2022-08-17T19:17:37.849Z,99844.03
2022-08-17T19:20:47.547Z,99844.84
2022-08-17T19:23:58.896Z,99846.03
2022-08-17T19:27:18.048Z,99850.81
2022-08-17T19:30:23.669Z,99855.13
2022-08-17T19:33:26.763Z,99859.69
2022-08-17T19:36:38.445Z,99860.19
2022-08-17T19:39:41.208Z,99865.50
2022-08-17T19:42:47.391Z,99866.47
2022-08-17T19:45:58.311Z,99869.25
2022-08-17T19:49:18.563Z,99864.19
2022-08-17T19:52:27.063Z,99862.56
2022-08-17T19:55:31.818Z,99868.31
2022-08-17T19:58:34.441Z,99860.81
2022-08-17T20:01:41.238Z,99865.09
2022-08-17T20:04:45.372Z,99863.91
2022-08-17T20:08:06.340Z,99863.13
2022-08-17T20:11:20.350Z,99863.59
2022-08-17T20:14:24.999Z,99863.06
2022-08-17T20:17:31.118Z,99862.84
2022-08-17T20:20:43.114Z,99865.41
2022-08-17T20:23:54.029Z,99860.06
2022-08-17T20:27:14.820Z,99859.75
2022-08-17T20:30:23.251Z,99862.16
2022-08-17T20:33:32.874Z,99863.41
2022-08-17T20:36:36.955Z,99864.16
2022-08-17T20:39:42.468Z,99857.91
2022-08-17T20:42:45.108Z,99850.38
2022-08-17T20:46:04.116Z,99858.78
2022-08-17T20:49:14.933Z,99858.28
2022-08-17T20:52:37.005Z,99849.06
2022-08-17T20:55:52.626Z,99852.62
2022-08-17T20:58:55.572Z,99857.72
2022-08-17T21:02:17.557Z,99852.56
2022-08-17T21:05:57.204Z,99846.41
2022-08-17T21:09:21.346Z,99855.41
2022-08-17T21:12:43.995Z,99860.25
2022-08-17T21:15:59.450Z,99860.28
2022-08-17T21:19:22.186Z,99866.75
2022-08-17T21:22:31.764Z,99859.34
2022-08-17T21:25:40.499Z,99866.22
2022-08-17T21:29:00.693Z,99870.84
2022-08-17T21:32:05.259Z,99862.34
2022-08-17T21:35:11.098Z,99868.91
2022-08-17T21:38:15.019Z,99872.16
2022-08-17T21:41:19.128Z,99878.72
2022-08-17T21:44:31.301Z,99876.34
2022-08-17T21:47:34.926Z,99882.53
2022-08-17T21:50:41.396Z,99890.34
2022-08-17T21:53:50.073Z,99884.50
2022-08-17T21:56:52.848Z,99887.56
2022-08-17T21:59:57.488Z,99887.28
2022-08-17T22:03:01.236Z,99893.81
2022-08-17T22:06:27.677Z,99888.41
2022-08-17T22:09:31.933Z,99895.37
2022-08-17T22:12:34.684Z,99897.91
2022-08-17T22:15:40.151Z,99903.19
2022-08-17T22:18:43.426Z,99906.53
2022-08-17T22:21:45.720Z,99915.44
2022-08-17T22:24:55.471Z,99916.84
2022-08-17T22:28:05.933Z,99915.75
2022-08-17T22:31:10.355Z,99917.97
2022-08-17T22:34:17.396Z,99915.44
2022-08-17T22:37:28.534Z,99923.28
2022-08-17T22:40:32.250Z,99922.44
2022-08-17T22:43:37.603Z,99920.03
2022-08-17T22:46:47.429Z,99935.78
2022-08-17T22:49:53.167Z,99946.63
2022-08-17T22:53:15.469Z,99973.75
2022-08-17T22:56:38.851Z,99957.03
2022-08-17T22:59:45.183Z,99957.75
2022-08-17T23:03:05.677Z,99960.44
2022-08-17T23:06:09.648Z,99963.87
2022-08-17T23:09:12.363Z,99964.97
2022-08-17T23:12:17.763Z,99982.00
2022-08-17T23:15:20.560Z,99974.03
2022-08-17T23:18:23.423Z,99978.63
2022-08-17T23:21:27.640Z,99988.34
2022-08-17T23:24:35.599Z,99993.37
2022-08-17T23:27:38.258Z,99984.00
2022-08-17T23:30:42.597Z,99983.81
2022-08-17T23:33:45.843Z,99985.75
2022-08-17T23:36:51.263Z,99980.31
2022-08-17T23:39:55.592Z,99974.03
2022-08-17T23:42:58.031Z,99975.53
2022-08-17T23:46:03.594Z,99974.38
2022-08-17T23:49:06.677Z,99979.44
2022-08-17T23:52:14.981Z,99964.59
2022-08-17T23:55:18.718Z,99970.59
2022-08-17T23:58:21.303Z,99972.03
